Roaming Rock Shores, Ohio
Current Conditions -  °F | °C
As of 8:53 AM on Tuesday 21 Oct 2014 (Local Time) from KHZY Reporting Station
Overcast Overcast  
Wind Chill: 50°   Ceiling: 2500
Heat Index: 50°   Visibility: 10mi
Dew Point: 48°   Wind: 5mph
Humidity: 93%   Direction: 300°WNW
Pressure: 29.88"   Gusts: NA
Location:  41.6051°N, 80.867°W
Report Text: KHZY 211253Z AUTO 30004KT 10SM FEW015 BKN025 OVC037 10/09 A2988 RMK AO2 RAE30 SLP121 P0000 T01000089
Loading
Personal Weather Stations






























Interactive Weather Map
Tropical Storm Tracking
New forecast layout! Learn more

10-Day Weather Forecast

Advertisements
Track Severe Weather on mobile